createdAt,value
2023-01-27T00:00:53.380Z,74.53
2023-01-27T00:03:21.602Z,74.02
2023-01-27T00:05:49.580Z,73.63
2023-01-27T00:08:17.829Z,73.91
2023-01-27T00:10:46.055Z,73.92
2023-01-27T00:13:14.893Z,74.11
2023-01-27T00:15:42.594Z,73.74
2023-01-27T00:18:10.627Z,73.49
2023-01-27T00:20:38.464Z,74.19
2023-01-27T00:23:08.239Z,74.37
2023-01-27T00:25:36.203Z,74.74
2023-01-27T00:28:04.150Z,74.93
2023-01-27T00:30:32.820Z,73.75
2023-01-27T00:33:00.711Z,73.37
2023-01-27T00:35:28.597Z,74.63
2023-01-27T00:37:56.245Z,73.69
2023-01-27T00:40:24.285Z,74.09
2023-01-27T00:42:51.914Z,74.46
2023-01-27T00:45:19.504Z,73.96
2023-01-27T00:47:51.133Z,74.40
2023-01-27T00:50:19.724Z,73.84
2023-01-27T00:52:48.202Z,73.69
2023-01-27T00:55:16.155Z,74.02
2023-01-27T00:57:44.500Z,74.18
2023-01-27T01:00:13.558Z,74.38
2023-01-27T01:02:41.489Z,74.05
2023-01-27T01:05:09.508Z,73.44
2023-01-27T01:07:37.793Z,73.61
2023-01-27T01:10:06.102Z,73.72
2023-01-27T01:12:33.924Z,73.70
2023-01-27T01:15:01.812Z,73.33
2023-01-27T01:17:30.648Z,73.51
2023-01-27T01:19:58.475Z,73.41
2023-01-27T01:22:26.621Z,73.15
2023-01-27T01:24:54.393Z,72.90
2023-01-27T01:27:22.099Z,72.42
2023-01-27T01:29:50.041Z,72.68
2023-01-27T01:32:17.943Z,71.83
2023-01-27T01:34:45.577Z,72.08
2023-01-27T01:37:13.609Z,72.06
2023-01-27T01:39:42.168Z,71.81
2023-01-27T01:42:09.825Z,71.25
2023-01-27T01:44:37.744Z,71.32
2023-01-27T01:47:05.406Z,71.29
2023-01-27T01:49:36.513Z,71.76
2023-01-27T01:52:13.972Z,71.46
2023-01-27T01:54:46.907Z,71.07
2023-01-27T01:57:23.347Z,71.03
2023-01-27T01:59:55.559Z,70.97
2023-01-27T02:02:26.071Z,71.04
2023-01-27T02:05:09.408Z,70.97
2023-01-27T02:07:42.204Z,71.16
2023-01-27T02:10:11.464Z,71.12
2023-01-27T02:12:39.970Z,70.81
2023-01-27T02:15:08.901Z,70.59
2023-01-27T02:17:36.680Z,70.82
2023-01-27T02:20:14.177Z,70.59
2023-01-27T02:23:20.163Z,71.06
2023-01-27T02:25:51.818Z,71.07
2023-01-27T02:28:19.537Z,71.42
2023-01-27T02:30:47.935Z,71.44
2023-01-27T02:33:16.253Z,71.13
2023-01-27T02:35:49.668Z,71.08
2023-01-27T02:38:19.198Z,71.48
2023-01-27T02:40:53.975Z,71.72
2023-01-27T02:43:22.396Z,71.69
2023-01-27T02:45:50.044Z,71.62
2023-01-27T02:48:18.112Z,72.04
2023-01-27T02:50:46.034Z,73.19
2023-01-27T02:53:13.816Z,73.08
2023-01-27T02:55:41.400Z,73.15
2023-01-27T02:58:09.545Z,73.61
2023-01-27T03:00:37.714Z,73.97
2023-01-27T03:03:05.315Z,74.19
2023-01-27T03:05:33.269Z,73.83
2023-01-27T03:08:01.012Z,73.85
2023-01-27T03:10:28.733Z,74.37
2023-01-27T03:12:58.713Z,74.61
2023-01-27T03:15:26.410Z,74.92
2023-01-27T03:17:54.084Z,74.77
2023-01-27T03:20:22.497Z,75.21
2023-01-27T03:22:50.508Z,75.73
2023-01-27T03:25:18.734Z,75.54
2023-01-27T03:27:46.770Z,75.35
2023-01-27T03:30:16.866Z,75.32
2023-01-27T03:32:48.114Z,76.23
2023-01-27T03:35:17.368Z,76.75
2023-01-27T03:37:45.403Z,76.59
2023-01-27T03:40:14.187Z,76.46
2023-01-27T03:42:41.868Z,76.25
2023-01-27T03:45:10.246Z,76.29
2023-01-27T03:47:38.562Z,76.21
2023-01-27T03:50:06.682Z,75.89
2023-01-27T03:52:34.361Z,75.53
2023-01-27T03:55:03.049Z,75.39
2023-01-27T03:57:30.784Z,75.11
2023-01-27T03:59:58.424Z,75.49
2023-01-27T04:02:26.541Z,75.40
2023-01-27T04:04:54.446Z,74.54
2023-01-27T04:07:22.056Z,74.63
2023-01-27T04:09:51.364Z,74.55
2023-01-27T04:12:19.303Z,74.22
2023-01-27T04:14:47.006Z,74.71
2023-01-27T04:17:17.312Z,73.92
2023-01-27T04:19:46.752Z,73.88
2023-01-27T04:22:19.901Z,74.61
2023-01-27T04:24:47.889Z,74.75
2023-01-27T04:27:15.677Z,75.57
2023-01-27T04:29:44.201Z,74.30
2023-01-27T04:32:13.539Z,74.21
2023-01-27T04:34:41.553Z,74.80
2023-01-27T04:37:10.145Z,74.55
2023-01-27T04:39:38.583Z,74.39
2023-01-27T04:42:06.185Z,74.69
2023-01-27T04:44:33.811Z,74.84
2023-01-27T04:47:02.064Z,75.05
2023-01-27T04:49:29.713Z,74.88
2023-01-27T04:51:57.269Z,75.35
2023-01-27T04:54:26.327Z,74.82
2023-01-27T04:56:59.322Z,74.54
2023-01-27T04:59:27.381Z,75.07
2023-01-27T05:01:55.061Z,74.90
2023-01-27T05:04:22.789Z,74.40
2023-01-27T05:06:50.676Z,74.94
2023-01-27T05:09:18.438Z,74.89
2023-01-27T05:11:46.167Z,75.01
2023-01-27T05:14:14.259Z,74.53
2023-01-27T05:16:42.003Z,75.19
2023-01-27T05:19:09.620Z,74.63
2023-01-27T05:21:37.642Z,75.15
2023-01-27T05:24:05.413Z,75.26
2023-01-27T05:26:33.207Z,74.88
2023-01-27T05:29:01.285Z,74.16
2023-01-27T05:31:30.766Z,73.61
2023-01-27T05:33:59.755Z,74.08
2023-01-27T05:36:28.789Z,73.84
2023-01-27T05:38:58.107Z,73.61
2023-01-27T05:41:26.010Z,74.12
2023-01-27T05:43:55.555Z,74.26
2023-01-27T05:46:25.556Z,74.68
2023-01-27T05:48:56.547Z,74.98
2023-01-27T05:51:26.238Z,75.09
2023-01-27T05:53:54.061Z,74.36
2023-01-27T05:56:22.661Z,74.37
2023-01-27T05:58:50.561Z,73.79
2023-01-27T06:01:21.314Z,73.41
2023-01-27T06:03:49.758Z,73.14
2023-01-27T06:06:19.478Z,72.94
2023-01-27T06:08:48.324Z,72.80
2023-01-27T06:11:17.885Z,72.97
2023-01-27T06:13:46.378Z,73.04
2023-01-27T06:16:16.086Z,72.89
2023-01-27T06:18:44.710Z,72.84
2023-01-27T06:21:13.753Z,72.16
2023-01-27T06:23:41.662Z,72.41
2023-01-27T06:26:14.679Z,72.69
2023-01-27T06:28:42.615Z,72.34
2023-01-27T06:31:15.980Z,72.38
2023-01-27T06:33:44.210Z,72.37
2023-01-27T06:36:17.161Z,71.94
2023-01-27T06:38:45.138Z,71.81
2023-01-27T06:41:13.470Z,72.11
2023-01-27T06:43:41.338Z,71.84
2023-01-27T06:46:09.032Z,72.06
2023-01-27T06:48:37.119Z,72.15
2023-01-27T06:51:05.902Z,72.15
2023-01-27T06:53:33.462Z,71.74
2023-01-27T06:56:01.907Z,71.40
2023-01-27T06:58:29.751Z,71.37
2023-01-27T07:00:57.413Z,71.28
2023-01-27T07:03:26.541Z,71.06
2023-01-27T07:05:54.326Z,71.21
2023-01-27T07:08:22.023Z,71.15
2023-01-27T07:10:49.955Z,71.15
2023-01-27T07:13:17.792Z,70.92
2023-01-27T07:15:45.603Z,70.47
2023-01-27T07:18:13.661Z,70.68
2023-01-27T07:20:41.838Z,70.81
2023-01-27T07:23:09.838Z,70.87
2023-01-27T07:25:37.949Z,70.85
2023-01-27T07:28:06.294Z,70.52
2023-01-27T07:30:34.305Z,70.52
2023-01-27T07:33:04.554Z,70.29
2023-01-27T07:35:32.241Z,70.13
2023-01-27T07:37:59.869Z,70.27
2023-01-27T07:40:28.454Z,70.14
2023-01-27T07:43:00.107Z,69.80
2023-01-27T07:45:28.814Z,69.19
2023-01-27T07:48:04.670Z,69.46
2023-01-27T07:50:32.721Z,69.24
2023-01-27T07:53:01.445Z,69.09
2023-01-27T07:55:29.989Z,69.04
2023-01-27T07:57:57.991Z,69.22
2023-01-27T08:00:26.754Z,69.39
2023-01-27T08:02:55.755Z,69.21
2023-01-27T08:05:23.953Z,69.32
2023-01-27T08:07:52.303Z,70.01
2023-01-27T08:10:20.509Z,69.29
2023-01-27T08:12:51.112Z,68.79
2023-01-27T08:15:19.310Z,69.14
2023-01-27T08:17:55.085Z,68.93
2023-01-27T08:20:24.465Z,69.21
2023-01-27T08:22:52.812Z,68.80
2023-01-27T08:25:20.556Z,69.31
2023-01-27T08:27:52.290Z,68.82
2023-01-27T08:30:20.673Z,68.71
2023-01-27T08:32:48.773Z,69.69
2023-01-27T08:35:17.460Z,68.57
2023-01-27T08:37:49.125Z,69.03
2023-01-27T08:40:17.756Z,69.55
2023-01-27T08:42:46.736Z,69.71
2023-01-27T08:45:14.452Z,70.48
2023-01-27T08:47:42.038Z,70.15
2023-01-27T08:50:10.817Z,70.21
2023-01-27T08:52:38.915Z,70.51
2023-01-27T08:55:06.724Z,71.35
2023-01-27T08:57:36.875Z,72.25
2023-01-27T09:00:06.575Z,71.21
2023-01-27T09:02:34.976Z,71.53
2023-01-27T09:05:02.936Z,73.42
2023-01-27T09:07:30.981Z,73.21
2023-01-27T09:10:13.216Z,73.96
2023-01-27T09:12:43.855Z,74.44
2023-01-27T09:15:13.502Z,74.53
2023-01-27T09:17:41.534Z,75.76
2023-01-27T09:20:09.968Z,75.28
2023-01-27T09:22:39.582Z,75.78
2023-01-27T09:25:09.062Z,76.37
2023-01-27T09:27:39.446Z,76.27
2023-01-27T09:30:14.054Z,76.32
2023-01-27T09:32:42.651Z,76.66
2023-01-27T09:35:10.989Z,76.61
2023-01-27T09:37:46.972Z,77.10
2023-01-27T09:40:54.043Z,77.54
2023-01-27T09:43:33.128Z,77.75
2023-01-27T09:46:10.117Z,77.05
2023-01-27T09:48:43.920Z,77.28
2023-01-27T09:51:30.189Z,77.89
2023-01-27T09:54:06.578Z,78.15
2023-01-27T09:56:49.355Z,77.56
2023-01-27T09:59:28.827Z,78.57
2023-01-27T10:02:09.094Z,78.12
2023-01-27T10:04:49.083Z,78.30
2023-01-27T10:07:35.181Z,78.57
2023-01-27T10:10:19.108Z,78.78
2023-01-27T10:13:07.443Z,79.20
2023-01-27T10:16:05.287Z,78.55
2023-01-27T10:18:58.032Z,78.84
2023-01-27T10:22:01.518Z,78.98
2023-01-27T10:24:51.614Z,79.03
2023-01-27T10:27:23.242Z,78.68
2023-01-27T10:29:59.090Z,78.53
2023-01-27T10:32:38.960Z,78.96
2023-01-27T10:35:13.946Z,79.68
2023-01-27T10:38:02.700Z,79.28
2023-01-27T10:40:52.468Z,79.19
2023-01-27T10:43:34.763Z,79.73
2023-01-27T10:46:11.368Z,79.91
2023-01-27T10:48:47.698Z,79.77
2023-01-27T10:51:29.876Z,81.20
2023-01-27T10:54:21.500Z,80.74
2023-01-27T10:57:06.136Z,81.03
2023-01-27T11:02:59.090Z,80.75
2023-01-27T11:05:37.840Z,80.08
2023-01-27T11:08:11.876Z,80.54
2023-01-27T11:10:43.649Z,80.72
2023-01-27T11:13:13.099Z,81.12
2023-01-27T11:15:41.056Z,81.49
2023-01-27T11:18:21.786Z,80.61
2023-01-27T11:20:54.475Z,81.14
2023-01-27T11:23:26.537Z,81.34
2023-01-27T11:26:13.058Z,80.90
2023-01-27T11:29:05.711Z,80.47
2023-01-27T11:31:37.706Z,80.75
2023-01-27T11:34:18.397Z,81.42
2023-01-27T11:36:47.736Z,80.74
2023-01-27T11:39:19.305Z,81.26
2023-01-27T11:41:54.811Z,80.77
2023-01-27T11:44:26.277Z,80.91
2023-01-27T11:46:55.604Z,81.77
2023-01-27T11:49:29.976Z,81.36
2023-01-27T11:52:16.647Z,81.34
2023-01-27T11:54:48.609Z,80.74
2023-01-27T11:57:22.508Z,80.66
2023-01-27T11:59:55.420Z,80.75
2023-01-27T12:02:27.957Z,81.26
2023-01-27T12:05:01.851Z,80.67
2023-01-27T12:07:35.315Z,80.36
2023-01-27T12:10:22.208Z,81.14
2023-01-27T12:12:49.931Z,80.53
2023-01-27T12:15:19.568Z,80.32
2023-01-27T12:18:14.252Z,81.34
2023-01-27T12:20:44.626Z,79.87
2023-01-27T12:23:23.026Z,80.55
2023-01-27T12:25:54.055Z,81.04
2023-01-27T12:28:25.938Z,80.70
2023-01-27T12:30:55.761Z,80.73
2023-01-27T12:33:27.496Z,80.14
2023-01-27T12:35:59.691Z,81.46
2023-01-27T12:38:30.076Z,80.46
2023-01-27T12:41:06.736Z,80.43
2023-01-27T12:43:54.167Z,80.49
2023-01-27T12:46:27.178Z,80.63
2023-01-27T12:49:01.805Z,81.04
2023-01-27T12:51:44.532Z,81.87
2023-01-27T12:54:29.607Z,81.44
2023-01-27T12:57:04.959Z,80.24
2023-01-27T12:59:33.463Z,80.38
2023-01-27T13:02:15.998Z,81.56
2023-01-27T13:04:51.825Z,80.71
2023-01-27T13:07:36.228Z,80.25
2023-01-27T13:10:06.396Z,80.51
2023-01-27T13:12:47.544Z,80.55
2023-01-27T13:15:18.171Z,80.09
2023-01-27T13:17:54.046Z,80.46
2023-01-27T13:20:57.307Z,80.60
2023-01-27T13:23:27.645Z,80.40
2023-01-27T13:26:05.476Z,80.75
2023-01-27T13:28:51.779Z,80.56
2023-01-27T13:31:44.159Z,79.77
2023-01-27T13:34:40.309Z,80.23
2023-01-27T13:37:13.597Z,80.63
2023-01-27T13:39:54.887Z,79.64
2023-01-27T13:42:44.065Z,79.82
2023-01-27T13:45:15.743Z,80.32
2023-01-27T13:47:51.241Z,79.44
2023-01-27T13:50:22.025Z,79.75
2023-01-27T13:52:59.729Z,79.60
2023-01-27T13:55:46.502Z,79.95
2023-01-27T13:58:35.477Z,80.26
2023-01-27T14:01:18.812Z,80.44
2023-01-27T14:04:21.092Z,80.55
2023-01-27T14:07:07.215Z,80.77
2023-01-27T14:10:12.659Z,80.80
2023-01-27T14:13:12.206Z,80.57
2023-01-27T14:16:01.128Z,80.77
2023-01-27T14:18:34.381Z,80.63
2023-01-27T14:21:40.893Z,80.51
2023-01-27T14:24:46.178Z,80.74
2023-01-27T14:27:30.104Z,80.90
2023-01-27T14:30:19.333Z,80.88
2023-01-27T14:32:53.238Z,81.59
2023-01-27T14:35:30.320Z,80.97
2023-01-27T14:38:07.460Z,80.50
2023-01-27T14:40:40.953Z,80.72
2023-01-27T14:43:39.948Z,81.42
2023-01-27T14:46:36.824Z,81.08
2023-01-27T14:49:36.832Z,81.06
2023-01-27T14:52:30.792Z,81.35
2023-01-27T14:55:20.871Z,80.53
2023-01-27T14:58:17.844Z,81.35
2023-01-27T15:00:58.763Z,81.36
2023-01-27T15:03:51.146Z,81.59
2023-01-27T15:06:28.126Z,80.88
2023-01-27T15:09:05.605Z,80.86
2023-01-27T15:11:42.272Z,81.35
2023-01-27T15:14:24.899Z,81.61
2023-01-27T15:17:28.469Z,81.46
2023-01-27T15:20:30.266Z,81.50
2023-01-27T15:23:07.411Z,81.89
2023-01-27T15:25:44.500Z,81.75
2023-01-27T15:28:15.294Z,82.01
2023-01-27T15:31:09.764Z,81.96
2023-01-27T15:33:57.345Z,81.15
2023-01-27T15:36:27.704Z,81.90
2023-01-27T15:39:18.894Z,81.37
2023-01-27T15:42:02.973Z,80.98
2023-01-27T15:44:32.697Z,81.40
2023-01-27T15:47:19.362Z,81.51
2023-01-27T15:49:57.405Z,81.78
2023-01-27T15:52:40.738Z,81.58
2023-01-27T15:55:31.349Z,81.30
2023-01-27T15:58:11.122Z,81.17
2023-01-27T16:00:49.183Z,81.76
2023-01-27T16:03:23.833Z,82.05
2023-01-27T16:05:54.548Z,81.18
2023-01-27T16:08:24.493Z,80.92
2023-01-27T16:10:52.141Z,81.68
2023-01-27T16:13:26.756Z,81.79
2023-01-27T16:16:19.647Z,81.78
2023-01-27T16:19:19.788Z,80.85
2023-01-27T16:21:58.530Z,80.93
2023-01-27T16:25:04.139Z,81.48
2023-01-27T16:27:39.047Z,81.40
2023-01-27T16:30:21.970Z,81.32
2023-01-27T16:33:16.900Z,82.24
2023-01-27T16:35:47.869Z,81.93
2023-01-27T16:38:38.111Z,81.78
2023-01-27T16:41:19.509Z,81.36
2023-01-27T16:43:50.369Z,82.04
2023-01-27T16:46:39.947Z,81.65
2023-01-27T16:49:23.507Z,81.39
2023-01-27T16:52:04.556Z,81.42
2023-01-27T16:54:36.177Z,81.50
2023-01-27T16:57:05.457Z,81.58
2023-01-27T16:59:36.808Z,81.96
2023-01-27T17:02:15.663Z,81.56
2023-01-27T17:04:49.491Z,81.44
2023-01-27T17:07:17.539Z,81.40
2023-01-27T17:09:58.312Z,81.72
2023-01-27T17:12:41.266Z,81.72
2023-01-27T17:15:22.620Z,82.12
2023-01-27T17:17:53.900Z,81.14
2023-01-27T17:20:26.470Z,82.05
2023-01-27T17:22:58.874Z,81.93
2023-01-27T17:25:32.866Z,82.19
2023-01-27T17:28:02.595Z,82.28
2023-01-27T17:30:37.039Z,82.29
2023-01-27T17:33:06.757Z,82.01
2023-01-27T17:35:36.978Z,81.80
2023-01-27T17:38:19.588Z,81.79
2023-01-27T17:40:49.662Z,82.50
2023-01-27T17:43:31.575Z,82.20
2023-01-27T17:46:05.891Z,82.40
2023-01-27T17:48:34.551Z,81.98
2023-01-27T17:51:02.872Z,82.08
2023-01-27T17:53:30.541Z,82.16
2023-01-27T17:55:58.357Z,82.07
2023-01-27T17:58:27.674Z,81.70
2023-01-27T18:00:56.170Z,82.15
2023-01-27T18:03:27.506Z,82.39
2023-01-27T18:05:55.582Z,82.18
2023-01-27T18:08:23.786Z,82.17
2023-01-27T18:10:52.297Z,81.87
2023-01-27T18:13:19.973Z,81.92
2023-01-27T18:15:50.931Z,82.15
2023-01-27T18:18:22.435Z,82.47
2023-01-27T18:20:59.738Z,82.13
2023-01-27T18:23:36.974Z,81.72
2023-01-27T18:26:10.687Z,82.43
2023-01-27T18:28:39.478Z,81.82
2023-01-27T18:31:17.147Z,81.68
2023-01-27T18:33:45.580Z,82.04
2023-01-27T18:36:22.729Z,82.59
2023-01-27T18:38:51.378Z,82.20
2023-01-27T18:41:24.297Z,81.69
2023-01-27T18:43:52.645Z,82.26
2023-01-27T18:46:21.313Z,81.87
2023-01-27T18:48:49.644Z,82.12
2023-01-27T18:51:18.359Z,81.77
2023-01-27T18:53:47.182Z,81.48
2023-01-27T18:56:14.857Z,81.63
2023-01-27T18:58:44.738Z,81.19
2023-01-27T19:01:22.294Z,81.54
2023-01-27T19:03:50.872Z,81.33
2023-01-27T19:06:23.862Z,80.75
2023-01-27T19:08:51.921Z,81.24
2023-01-27T19:11:19.786Z,80.81
2023-01-27T19:13:51.741Z,80.83
2023-01-27T19:16:19.941Z,80.97
2023-01-27T19:18:47.994Z,80.93
2023-01-27T19:21:16.862Z,81.02
2023-01-27T19:23:45.173Z,80.26
2023-01-27T19:26:21.193Z,80.39
2023-01-27T19:28:52.854Z,80.38
2023-01-27T19:31:21.169Z,81.37
2023-01-27T19:33:49.801Z,81.47
2023-01-27T19:36:27.888Z,81.58
2023-01-27T19:39:01.775Z,81.47
2023-01-27T19:41:29.703Z,80.90
2023-01-27T19:43:57.755Z,80.31
2023-01-27T19:46:25.822Z,80.62
2023-01-27T19:48:53.832Z,80.70
2023-01-27T19:51:22.406Z,80.91
2023-01-27T19:53:50.564Z,80.46
2023-01-27T19:56:20.795Z,80.32
2023-01-27T19:58:51.364Z,79.92
2023-01-27T20:01:24.610Z,80.29
2023-01-27T20:03:53.728Z,80.07
2023-01-27T20:06:28.381Z,80.28
2023-01-27T20:08:58.653Z,80.23
2023-01-27T20:11:36.351Z,80.14
2023-01-27T20:14:06.993Z,79.76
2023-01-27T20:16:35.347Z,80.31
2023-01-27T20:19:04.207Z,79.72
2023-01-27T20:21:32.567Z,79.56
2023-01-27T20:24:01.463Z,80.17
2023-01-27T20:26:29.456Z,79.33
2023-01-27T20:28:58.816Z,79.69
2023-01-27T20:31:27.154Z,79.84
2023-01-27T20:33:55.622Z,79.62
2023-01-27T20:36:23.949Z,79.76
2023-01-27T20:38:52.349Z,79.87
2023-01-27T20:41:22.506Z,79.72
2023-01-27T20:43:55.212Z,79.51
2023-01-27T20:46:23.096Z,79.00
2023-01-27T20:48:50.997Z,79.20
2023-01-27T20:51:19.437Z,79.11
2023-01-27T20:53:47.351Z,79.58
2023-01-27T20:56:17.924Z,79.58
2023-01-27T20:58:46.146Z,78.89
2023-01-27T21:01:16.380Z,78.95
2023-01-27T21:03:44.463Z,78.91
2023-01-27T21:06:13.364Z,79.09
2023-01-27T21:08:41.685Z,79.26
2023-01-27T21:11:10.724Z,78.93
2023-01-27T21:13:38.747Z,78.91
2023-01-27T21:16:07.526Z,79.03
2023-01-27T21:18:36.830Z,79.18
2023-01-27T21:21:04.958Z,79.07
2023-01-27T21:23:34.090Z,78.86
2023-01-27T21:26:04.226Z,79.47
2023-01-27T21:28:33.177Z,79.40
2023-01-27T21:31:08.287Z,79.62
2023-01-27T21:33:38.401Z,79.47
2023-01-27T21:36:08.665Z,78.79
2023-01-27T21:38:39.097Z,79.14
2023-01-27T21:41:10.789Z,79.47
2023-01-27T21:43:39.173Z,79.60
2023-01-27T21:46:07.402Z,79.59
2023-01-27T21:48:35.491Z,79.55
2023-01-27T21:51:03.647Z,79.27
2023-01-27T21:53:31.587Z,78.62
2023-01-27T21:56:10.313Z,78.46
2023-01-27T21:58:40.463Z,78.56
2023-01-27T22:01:09.403Z,78.84
2023-01-27T22:03:38.091Z,78.62
2023-01-27T22:06:07.521Z,78.23
2023-01-27T22:08:35.731Z,78.40
2023-01-27T22:11:11.010Z,78.65
2023-01-27T22:13:39.964Z,78.20
2023-01-27T22:16:10.714Z,77.82
2023-01-27T22:18:38.753Z,77.61
2023-01-27T22:21:06.405Z,77.04
2023-01-27T22:23:34.488Z,77.26
2023-01-27T22:26:02.096Z,77.48
2023-01-27T22:28:30.460Z,77.69
2023-01-27T22:31:01.510Z,77.59
2023-01-27T22:33:29.581Z,77.94
2023-01-27T22:36:02.435Z,77.72
2023-01-27T22:38:30.335Z,77.38
2023-01-27T22:40:58.638Z,77.55
2023-01-27T22:43:26.397Z,77.73
2023-01-27T22:45:54.339Z,77.60
2023-01-27T22:48:22.237Z,77.36
2023-01-27T22:50:50.282Z,77.94
2023-01-27T22:53:18.564Z,77.26
2023-01-27T22:55:46.297Z,76.73
2023-01-27T22:58:13.945Z,76.61
2023-01-27T23:00:42.319Z,77.28
2023-01-27T23:03:10.018Z,77.08
2023-01-27T23:05:37.621Z,77.01
2023-01-27T23:08:05.628Z,77.25
2023-01-27T23:10:34.228Z,77.21
2023-01-27T23:13:02.127Z,77.49
2023-01-27T23:15:30.350Z,77.17
2023-01-27T23:17:58.020Z,76.65
2023-01-27T23:20:25.834Z,77.12
2023-01-27T23:22:53.868Z,77.17
2023-01-27T23:25:21.487Z,76.87
2023-01-27T23:27:49.233Z,76.69
2023-01-27T23:30:17.746Z,76.95
2023-01-27T23:32:45.510Z,77.00
2023-01-27T23:35:13.549Z,76.75
2023-01-27T23:37:41.754Z,76.56
2023-01-27T23:40:11.094Z,76.34
2023-01-27T23:42:39.300Z,76.30
2023-01-27T23:45:07.754Z,76.29
2023-01-27T23:47:35.389Z,76.32
2023-01-27T23:50:03.351Z,76.37
2023-01-27T23:52:34.501Z,76.29
2023-01-27T23:55:02.240Z,76.16
2023-01-27T23:57:29.939Z,76.39
2023-01-27T23:59:58.019Z,76.33
